createdAt,value
2022-11-29T00:01:24.151Z,20.38
2022-11-29T00:03:51.348Z,20.80
2022-11-29T00:06:21.062Z,20.52
2022-11-29T00:08:48.393Z,20.02
2022-11-29T00:11:36.674Z,22.10
2022-11-29T00:14:06.246Z,20.83
2022-11-29T00:16:36.159Z,20.80
2022-11-29T00:19:07.231Z,20.38
2022-11-29T00:21:36.716Z,21.75
2022-11-29T00:24:06.046Z,18.60
2022-11-29T00:26:32.994Z,19.15
2022-11-29T00:29:00.741Z,23.48
2022-11-29T00:31:32.852Z,21.45
2022-11-29T00:34:04.396Z,23.23
2022-11-29T00:36:31.103Z,19.52
2022-11-29T00:38:59.137Z,19.98
2022-11-29T00:41:27.464Z,21.35
2022-11-29T00:43:55.196Z,20.75
2022-11-29T00:46:23.797Z,20.73
2022-11-29T00:48:50.334Z,19.58
2022-11-29T00:51:17.281Z,20.80
2022-11-29T00:53:44.067Z,21.30
2022-11-29T00:56:10.750Z,20.77
2022-11-29T00:58:37.440Z,21.95
2022-11-29T01:01:04.732Z,18.48
2022-11-29T01:03:31.779Z,19.38
2022-11-29T01:06:03.247Z,23.20
2022-11-29T01:08:30.298Z,21.17
2022-11-29T01:11:14.092Z,21.63
2022-11-29T01:13:44.824Z,23.85
2022-11-29T01:16:11.990Z,19.95
2022-11-29T01:18:39.095Z,21.60
2022-11-29T01:21:11.957Z,18.73
2022-11-29T01:23:39.656Z,22.20
2022-11-29T01:26:15.175Z,24.33
2022-11-29T01:28:43.065Z,21.67
2022-11-29T01:31:12.115Z,24.90
2022-11-29T01:33:43.666Z,22.67
2022-11-29T01:36:12.498Z,23.15
2022-11-29T01:38:42.343Z,19.83
2022-11-29T01:41:13.847Z,23.33
2022-11-29T01:43:59.828Z,21.52
2022-11-29T01:46:34.708Z,20.38
2022-11-29T01:49:18.131Z,22.17
2022-11-29T01:51:50.094Z,21.63
2022-11-29T01:54:17.500Z,21.70
2022-11-29T01:59:19.439Z,21.30
2022-11-29T02:01:47.205Z,24.85
2022-11-29T02:06:42.301Z,20.98
2022-11-29T02:09:21.300Z,23.45
2022-11-29T02:12:12.664Z,21.13
2022-11-29T02:14:51.598Z,18.90
2022-11-29T02:17:33.824Z,19.90
2022-11-29T02:20:26.515Z,18.50
2022-11-29T02:23:04.642Z,19.13
2022-11-29T02:25:40.158Z,17.83
2022-11-29T02:28:38.570Z,20.13
2022-11-29T02:31:45.469Z,19.20
2022-11-29T02:34:50.710Z,19.67
2022-11-29T02:37:46.948Z,21.33
2022-11-29T02:40:45.851Z,20.58
2022-11-29T02:43:57.915Z,20.83
2022-11-29T02:46:50.773Z,17.38
2022-11-29T02:49:58.965Z,19.15
2022-11-29T02:52:39.586Z,20.70
2022-11-29T02:55:18.966Z,20.50
2022-11-29T02:58:16.843Z,21.33
2022-11-29T03:01:23.680Z,21.45
2022-11-29T03:04:00.764Z,19.08
2022-11-29T03:06:38.236Z,20.63
2022-11-29T03:09:29.575Z,24.00
2022-11-29T03:12:11.089Z,20.40
2022-11-29T03:14:57.405Z,23.35
2022-11-29T03:17:23.723Z,22.38
2022-11-29T03:20:27.912Z,23.35
2022-11-29T03:23:22.190Z,20.58
2022-11-29T03:26:09.065Z,24.35
2022-11-29T03:28:45.950Z,21.75
2022-11-29T03:31:31.865Z,23.02
2022-11-29T03:34:13.535Z,21.50
2022-11-29T03:37:03.583Z,21.10
2022-11-29T03:40:06.795Z,24.50
2022-11-29T03:42:37.014Z,23.55
2022-11-29T03:45:03.361Z,24.30
2022-11-29T03:47:45.100Z,22.88
2022-11-29T03:50:16.398Z,25.80
2022-11-29T03:52:50.354Z,21.73
2022-11-29T03:55:47.768Z,25.48
2022-11-29T03:58:23.227Z,20.40
2022-11-29T04:00:49.559Z,26.10
2022-11-29T04:03:35.888Z,20.92
2022-11-29T04:06:18.283Z,19.38
2022-11-29T04:09:09.583Z,20.02
2022-11-29T04:11:54.843Z,17.05
2022-11-29T04:14:43.645Z,20.15
2022-11-29T04:17:28.473Z,18.52
2022-11-29T04:20:25.662Z,19.05
2022-11-29T04:23:26.846Z,18.30
2022-11-29T04:26:34.991Z,16.88
2022-11-29T04:29:23.077Z,21.27
2022-11-29T04:32:02.632Z,20.38
2022-11-29T04:34:38.158Z,16.98
2022-11-29T04:37:26.347Z,16.88
2022-11-29T04:42:54.107Z,17.48
2022-11-29T04:45:57.859Z,17.38
2022-11-29T04:48:51.725Z,17.42
2022-11-29T04:51:53.464Z,16.23
2022-11-29T04:54:31.194Z,16.90
2022-11-29T04:57:17.608Z,16.15
2022-11-29T04:59:59.674Z,16.52
2022-11-29T05:02:36.734Z,16.65
2022-11-29T05:05:23.459Z,15.93
2022-11-29T05:08:23.891Z,14.85
2022-11-29T05:11:25.043Z,15.32
2022-11-29T05:14:10.764Z,15.38
2022-11-29T05:16:40.138Z,17.25
2022-11-29T05:19:49.958Z,14.88
2022-11-29T05:22:45.862Z,15.73
2022-11-29T05:25:31.307Z,15.15
2022-11-29T05:28:27.068Z,14.82
2022-11-29T05:30:59.653Z,13.98
2022-11-29T05:33:53.822Z,15.05
2022-11-29T05:36:42.511Z,15.57
2022-11-29T05:39:33.751Z,15.57
2022-11-29T05:42:21.378Z,16.48
2022-11-29T05:44:56.562Z,16.02
2022-11-29T05:47:31.787Z,14.07
2022-11-29T05:50:10.045Z,15.18
2022-11-29T05:52:57.757Z,16.00
2022-11-29T05:55:51.332Z,14.60
2022-11-29T05:58:33.811Z,17.63
2022-11-29T06:01:25.501Z,19.05
2022-11-29T06:03:59.971Z,15.50
2022-11-29T06:06:49.688Z,16.20
2022-11-29T06:09:29.099Z,14.98
2022-11-29T06:12:02.426Z,14.27
2022-11-29T06:15:06.522Z,14.40
2022-11-29T06:18:22.078Z,16.83
2022-11-29T06:20:57.218Z,17.80
2022-11-29T06:23:57.463Z,15.85
2022-11-29T06:26:41.879Z,16.08
2022-11-29T06:29:42.205Z,16.88
2022-11-29T06:32:26.715Z,16.95
2022-11-29T06:35:09.353Z,16.08
2022-11-29T06:37:40.565Z,17.65
2022-11-29T06:40:14.114Z,16.52
2022-11-29T06:42:40.572Z,17.25
2022-11-29T06:45:08.339Z,14.57
2022-11-29T06:47:46.667Z,14.15
2022-11-29T06:50:33.400Z,15.45
2022-11-29T06:53:14.659Z,17.13
2022-11-29T06:55:56.445Z,17.00
2022-11-29T06:58:44.769Z,15.50
2022-11-29T07:01:46.769Z,19.02
2022-11-29T07:04:30.856Z,15.65
2022-11-29T07:06:57.859Z,17.77
2022-11-29T07:09:30.459Z,17.75
2022-11-29T07:11:57.194Z,18.40
2022-11-29T07:14:23.894Z,17.75
2022-11-29T07:17:05.393Z,17.67
2022-11-29T07:19:47.084Z,16.50
2022-11-29T07:22:36.344Z,17.55
2022-11-29T07:25:47.109Z,15.75
2022-11-29T07:28:36.698Z,18.42
2022-11-29T07:31:14.476Z,18.88
2022-11-29T07:34:22.050Z,18.67
2022-11-29T07:37:11.783Z,16.02
2022-11-29T07:39:51.918Z,14.40
2022-11-29T07:42:35.291Z,18.48
2022-11-29T07:45:22.576Z,14.85
2022-11-29T07:47:50.095Z,18.03
2022-11-29T07:50:16.559Z,19.15
2022-11-29T07:52:43.357Z,18.75
2022-11-29T07:55:21.503Z,16.98
2022-11-29T07:57:49.270Z,15.77
2022-11-29T08:00:18.179Z,15.63
2022-11-29T08:02:45.812Z,16.98
2022-11-29T08:05:13.151Z,16.77
2022-11-29T08:07:40.801Z,15.13
2022-11-29T08:10:10.915Z,17.02
2022-11-29T08:12:42.764Z,17.17
2022-11-29T08:15:09.538Z,17.42
2022-11-29T08:17:38.172Z,17.95
2022-11-29T08:20:06.205Z,18.13
2022-11-29T08:22:32.676Z,15.60
2022-11-29T08:24:59.897Z,15.65
2022-11-29T08:27:28.305Z,16.13
2022-11-29T08:32:21.121Z,16.40
2022-11-29T08:34:48.156Z,17.27
2022-11-29T08:37:14.748Z,19.20
2022-11-29T08:39:41.292Z,19.50
2022-11-29T08:42:07.683Z,18.98
2022-11-29T08:44:34.087Z,18.08
2022-11-29T08:47:19.223Z,17.80
2022-11-29T08:50:03.567Z,17.02
2022-11-29T08:52:54.608Z,17.70
2022-11-29T08:55:23.782Z,17.35
2022-11-29T08:57:51.137Z,16.20
2022-11-29T09:00:18.962Z,14.77
2022-11-29T09:02:45.986Z,15.55
2022-11-29T09:05:12.932Z,18.85
2022-11-29T09:07:39.535Z,17.52
2022-11-29T09:10:08.347Z,16.50
2022-11-29T09:12:36.483Z,15.48
2022-11-29T09:15:05.905Z,15.77
2022-11-29T09:17:32.388Z,17.45
2022-11-29T09:19:58.823Z,15.25
2022-11-29T09:22:25.342Z,15.40
2022-11-29T09:24:51.816Z,17.00
2022-11-29T09:27:18.511Z,15.38
2022-11-29T09:29:44.948Z,15.50
2022-11-29T09:32:11.457Z,14.18
2022-11-29T09:34:37.896Z,15.43
2022-11-29T09:37:05.193Z,14.00
2022-11-29T09:39:31.853Z,13.88
2022-11-29T09:41:58.290Z,12.70
2022-11-29T09:44:49.468Z,14.60
2022-11-29T09:47:18.486Z,13.80
2022-11-29T09:50:16.493Z,13.80
2022-11-29T09:52:45.935Z,12.80
2022-11-29T09:55:33.754Z,12.70
2022-11-29T09:58:03.791Z,12.52
2022-11-29T10:00:37.213Z,13.45
2022-11-29T10:03:13.751Z,13.52
2022-11-29T10:05:49.720Z,14.60
2022-11-29T10:08:51.283Z,12.88
2022-11-29T10:11:24.051Z,12.93
2022-11-29T10:13:54.411Z,12.57
2022-11-29T10:16:50.916Z,11.85
2022-11-29T10:19:36.109Z,12.55
2022-11-29T10:22:07.517Z,10.95
2022-11-29T10:24:34.351Z,10.88
2022-11-29T10:27:01.781Z,13.10
2022-11-29T10:29:28.526Z,11.23
2022-11-29T10:31:56.714Z,10.80
2022-11-29T10:34:25.096Z,12.55
2022-11-29T10:36:59.642Z,12.50
2022-11-29T10:39:37.267Z,13.50
2022-11-29T10:42:06.515Z,12.20
2022-11-29T10:44:33.697Z,12.02
2022-11-29T10:47:09.249Z,12.80
2022-11-29T10:49:37.824Z,11.27
2022-11-29T10:52:05.512Z,12.52
2022-11-29T10:54:39.935Z,12.73
2022-11-29T10:57:16.506Z,12.18
2022-11-29T10:59:58.927Z,11.80
2022-11-29T11:02:25.641Z,11.73
2022-11-29T11:04:52.141Z,13.40
2022-11-29T11:07:33.276Z,12.45
2022-11-29T11:10:00.447Z,11.50
2022-11-29T11:12:32.396Z,13.50
2022-11-29T11:15:28.187Z,11.07
2022-11-29T11:17:58.303Z,11.45
2022-11-29T11:20:27.312Z,11.57
2022-11-29T11:23:06.479Z,10.82
2022-11-29T11:25:37.076Z,11.70
2022-11-29T11:28:25.337Z,11.90
2022-11-29T11:33:34.019Z,10.27
2022-11-29T11:36:14.364Z,11.70
2022-11-29T11:38:55.246Z,11.13
2022-11-29T11:41:51.201Z,11.90
2022-11-29T11:44:53.620Z,10.57
2022-11-29T11:47:27.277Z,11.07
2022-11-29T11:50:03.420Z,11.82
2022-11-29T11:52:53.256Z,11.55
2022-11-29T11:55:54.404Z,10.90
2022-11-29T11:58:30.539Z,9.63
2022-11-29T12:01:14.968Z,10.23
2022-11-29T12:03:52.603Z,9.82
2022-11-29T12:06:21.934Z,9.30
2022-11-29T12:08:49.317Z,10.88
2022-11-29T12:11:18.460Z,9.85
2022-11-29T12:13:51.959Z,9.73
2022-11-29T12:16:28.294Z,10.45
2022-11-29T12:19:07.013Z,10.45
2022-11-29T12:21:40.500Z,10.20
2022-11-29T12:24:32.533Z,11.00
2022-11-29T12:27:04.304Z,11.68
2022-11-29T12:29:33.725Z,10.93
2022-11-29T12:32:30.954Z,10.77
2022-11-29T12:35:19.175Z,11.20
2022-11-29T12:38:16.651Z,11.82
2022-11-29T12:41:22.458Z,11.45
2022-11-29T12:44:15.672Z,11.57
2022-11-29T12:46:50.419Z,11.18
2022-11-29T12:49:31.937Z,12.55
2022-11-29T12:52:01.285Z,10.77
2022-11-29T12:54:43.850Z,10.98
2022-11-29T12:57:19.493Z,11.63
2022-11-29T13:00:12.830Z,11.10
2022-11-29T13:02:48.763Z,11.52
2022-11-29T13:05:41.170Z,11.18
2022-11-29T13:08:28.928Z,10.20
2022-11-29T13:11:17.171Z,10.90
2022-11-29T13:16:52.061Z,10.65
2022-11-29T13:19:21.951Z,10.50
2022-11-29T13:22:25.727Z,10.55
2022-11-29T13:24:57.460Z,11.05
2022-11-29T13:27:35.803Z,11.00
2022-11-29T13:32:36.195Z,10.07
2022-11-29T13:35:20.669Z,12.25
2022-11-29T13:37:56.325Z,11.38
2022-11-29T13:40:37.284Z,11.40
2022-11-29T13:43:30.477Z,11.82
2022-11-29T13:46:22.848Z,11.75
2022-11-29T13:48:52.384Z,16.67
2022-11-29T13:51:21.787Z,14.35
2022-11-29T13:53:49.421Z,16.58
2022-11-29T13:56:29.564Z,13.13
2022-11-29T13:58:58.601Z,11.65
2022-11-29T14:01:26.745Z,21.35
2022-11-29T14:04:06.866Z,25.00
2022-11-29T14:06:36.519Z,17.25
2022-11-29T14:09:23.094Z,16.90
2022-11-29T14:12:36.944Z,12.70
2022-11-29T14:15:16.371Z,18.27
2022-11-29T14:17:51.799Z,12.55
2022-11-29T14:20:28.474Z,13.05
2022-11-29T14:23:04.108Z,11.10
2022-11-29T14:25:51.041Z,12.23
2022-11-29T14:28:18.287Z,11.82
2022-11-29T14:30:46.982Z,10.35
2022-11-29T14:33:13.340Z,8.18
2022-11-29T14:35:47.352Z,9.02
2022-11-29T14:38:46.464Z,8.18
2022-11-29T14:41:43.948Z,6.68
2022-11-29T14:44:27.925Z,7.70
2022-11-29T14:47:06.799Z,8.85
2022-11-29T14:49:44.519Z,28.35
2022-11-29T14:52:13.899Z,16.77
2022-11-29T14:55:00.526Z,10.80
2022-11-29T14:57:55.030Z,16.13
2022-11-29T15:00:26.567Z,20.55
2022-11-29T15:02:56.164Z,9.70
2022-11-29T15:05:32.299Z,10.60
2022-11-29T15:08:14.026Z,6.68
2022-11-29T15:10:44.799Z,6.63
2022-11-29T15:13:23.599Z,7.68
2022-11-29T15:16:23.006Z,7.78
2022-11-29T15:19:24.158Z,8.68
2022-11-29T15:22:07.302Z,10.05
2022-11-29T15:25:05.059Z,23.50
2022-11-29T15:27:32.753Z,17.08
2022-11-29T15:30:18.887Z,12.65
2022-11-29T15:32:46.170Z,11.98
2022-11-29T15:35:21.487Z,10.95
2022-11-29T15:37:49.635Z,8.85
2022-11-29T15:40:41.137Z,8.70
2022-11-29T15:43:26.201Z,8.60
2022-11-29T15:45:55.443Z,8.73
2022-11-29T15:48:26.323Z,7.30
2022-11-29T15:50:55.563Z,20.38
2022-11-29T15:53:48.124Z,22.92
2022-11-29T15:56:24.564Z,15.32
2022-11-29T15:58:59.419Z,12.32
2022-11-29T16:01:25.998Z,10.65
2022-11-29T16:03:55.164Z,13.00
2022-11-29T16:06:40.040Z,12.07
2022-11-29T16:09:14.685Z,10.68
2022-11-29T16:11:41.389Z,9.32
2022-11-29T16:14:10.484Z,10.20
2022-11-29T16:16:41.863Z,10.00
2022-11-29T16:19:16.899Z,9.68
2022-11-29T16:21:43.678Z,9.30
2022-11-29T16:24:21.724Z,9.43
2022-11-29T16:26:50.184Z,11.52
2022-11-29T16:34:30.467Z,9.40
2022-11-29T16:37:06.462Z,12.73
2022-11-29T16:39:38.410Z,19.65
2022-11-29T16:42:21.929Z,17.25
2022-11-29T16:45:35.025Z,28.73
2022-11-29T16:48:13.879Z,25.30
2022-11-29T16:50:40.344Z,19.42
2022-11-29T16:53:35.100Z,21.30
2022-11-29T16:56:02.839Z,15.90
2022-11-29T16:58:29.388Z,13.52
2022-11-29T17:00:55.955Z,16.02
2022-11-29T17:03:22.609Z,20.00
2022-11-29T17:05:50.088Z,22.60
2022-11-29T17:08:19.549Z,18.65
2022-11-29T17:10:46.088Z,12.55
2022-11-29T17:13:12.595Z,14.68
2022-11-29T17:15:39.019Z,16.23
2022-11-29T17:18:05.535Z,15.27
2022-11-29T17:20:31.999Z,13.15
2022-11-29T17:22:58.395Z,22.60
2022-11-29T17:25:24.789Z,17.67
2022-11-29T17:27:51.246Z,27.75
2022-11-29T17:30:17.962Z,29.08
2022-11-29T17:32:44.402Z,49.45
2022-11-29T17:35:10.849Z,37.83
2022-11-29T17:37:37.290Z,30.77
2022-11-29T17:40:04.234Z,25.23
2022-11-29T17:42:30.645Z,19.83
2022-11-29T17:44:57.065Z,19.17
2022-11-29T17:47:23.492Z,16.45
2022-11-29T17:49:49.867Z,16.45
2022-11-29T17:52:16.385Z,12.20
2022-11-29T17:54:42.844Z,11.05
2022-11-29T17:57:09.340Z,10.32
2022-11-29T17:59:35.763Z,13.48
2022-11-29T18:02:03.771Z,13.02
2022-11-29T18:04:30.253Z,11.75
2022-11-29T18:06:56.672Z,12.60
2022-11-29T18:09:23.159Z,11.70
2022-11-29T18:11:50.312Z,12.77
2022-11-29T18:14:20.728Z,12.00
2022-11-29T18:16:47.435Z,11.88
2022-11-29T18:19:17.090Z,11.88
2022-11-29T18:21:43.712Z,11.55
2022-11-29T18:24:10.324Z,9.93
2022-11-29T18:26:38.013Z,10.75
2022-11-29T18:29:05.981Z,10.15
2022-11-29T18:31:35.009Z,10.00
2022-11-29T18:34:06.855Z,10.50
2022-11-29T18:36:35.287Z,9.88
2022-11-29T18:39:04.894Z,15.50
2022-11-29T18:41:32.184Z,11.20
2022-11-29T18:44:01.020Z,10.88
2022-11-29T18:46:32.804Z,9.15
2022-11-29T18:49:00.892Z,9.75
2022-11-29T18:51:29.158Z,10.48
2022-11-29T18:53:56.624Z,9.95
2022-11-29T18:56:24.935Z,10.20
2022-11-29T18:58:58.583Z,11.00
2022-11-29T19:01:27.459Z,11.75
2022-11-29T19:03:55.794Z,12.55
2022-11-29T19:06:37.347Z,12.77
2022-11-29T19:09:07.460Z,16.05
2022-11-29T19:11:34.451Z,13.38
2022-11-29T19:14:03.985Z,15.38
2022-11-29T19:16:33.775Z,12.60
2022-11-29T19:19:01.333Z,12.52
2022-11-29T19:21:29.870Z,12.17
2022-11-29T19:24:01.897Z,12.02
2022-11-29T19:26:30.380Z,13.02
2022-11-29T19:31:26.802Z,11.50
2022-11-29T19:33:54.607Z,14.65
2022-11-29T19:36:29.576Z,12.30
2022-11-29T19:38:56.834Z,12.93
2022-11-29T19:41:34.024Z,12.15
2022-11-29T19:46:50.643Z,12.05
2022-11-29T19:49:17.154Z,12.35
2022-11-29T19:51:45.800Z,12.90
2022-11-29T19:54:12.728Z,13.57
2022-11-29T19:56:39.651Z,12.45
2022-11-29T19:59:07.607Z,12.93
2022-11-29T20:01:40.896Z,12.98
2022-11-29T20:04:11.042Z,12.52
2022-11-29T20:06:37.917Z,12.30
2022-11-29T20:09:04.771Z,12.45
2022-11-29T20:11:31.241Z,13.13
2022-11-29T20:14:02.701Z,13.45
2022-11-29T20:16:38.106Z,14.07
2022-11-29T20:19:12.328Z,14.25
2022-11-29T20:21:45.459Z,13.30
2022-11-29T20:24:13.875Z,13.13
2022-11-29T20:29:08.767Z,13.07
2022-11-29T20:31:37.282Z,13.00
2022-11-29T20:37:07.484Z,14.07
2022-11-29T20:39:50.251Z,13.50
2022-11-29T20:42:34.767Z,14.40
2022-11-29T20:45:05.820Z,13.63
2022-11-29T20:47:55.734Z,13.75
2022-11-29T20:50:26.322Z,13.55
2022-11-29T20:53:20.712Z,14.50
2022-11-29T20:55:48.808Z,14.18
2022-11-29T20:58:16.133Z,14.38
2022-11-29T21:00:42.604Z,15.05
2022-11-29T21:03:13.364Z,15.45
2022-11-29T21:05:39.950Z,14.25
2022-11-29T21:08:08.255Z,16.10
2022-11-29T21:10:34.997Z,15.10
2022-11-29T21:15:34.521Z,14.48
2022-11-29T21:18:01.232Z,14.75
2022-11-29T21:20:27.999Z,15.93
2022-11-29T21:23:45.008Z,15.73
2022-11-29T21:26:19.167Z,15.07
2022-11-29T21:29:12.033Z,14.50
2022-11-29T21:31:38.791Z,17.35
2022-11-29T21:34:05.332Z,16.35
2022-11-29T21:36:31.911Z,14.90
2022-11-29T21:39:02.247Z,15.27
2022-11-29T21:41:30.128Z,15.50
2022-11-29T21:44:12.033Z,16.23
2022-11-29T21:46:38.568Z,15.30
2022-11-29T21:49:05.275Z,15.38
2022-11-29T21:51:31.745Z,15.45
2022-11-29T21:53:58.208Z,15.55
2022-11-29T21:56:25.304Z,14.77
2022-11-29T21:58:51.871Z,15.52
2022-11-29T22:01:19.991Z,15.77
2022-11-29T22:03:47.226Z,16.35
2022-11-29T22:06:18.510Z,15.73
2022-11-29T22:08:45.417Z,15.93
2022-11-29T22:11:14.866Z,17.13
2022-11-29T22:14:02.273Z,15.63
2022-11-29T22:16:29.997Z,16.30
2022-11-29T22:18:57.768Z,17.10
2022-11-29T22:21:24.588Z,16.70
2022-11-29T22:23:53.665Z,15.73
2022-11-29T22:26:20.547Z,15.45
2022-11-29T22:28:46.972Z,16.52
2022-11-29T22:31:13.611Z,16.13
2022-11-29T22:33:40.214Z,15.35
2022-11-29T22:36:09.098Z,16.33
2022-11-29T22:38:35.728Z,17.10
2022-11-29T22:41:04.415Z,15.85
2022-11-29T22:43:32.191Z,15.75
2022-11-29T22:46:17.200Z,16.92
2022-11-29T22:48:46.098Z,16.00
2022-11-29T22:51:18.253Z,16.10
2022-11-29T22:53:53.395Z,16.02
2022-11-29T22:56:20.716Z,15.02
2022-11-29T22:58:47.344Z,15.40
2022-11-29T23:01:16.697Z,16.20
2022-11-29T23:03:45.428Z,16.30
2022-11-29T23:06:15.113Z,15.18
2022-11-29T23:08:42.597Z,15.82
2022-11-29T23:11:12.176Z,16.20
2022-11-29T23:13:40.421Z,17.88
2022-11-29T23:16:09.914Z,17.10
2022-11-29T23:18:36.770Z,17.35
2022-11-29T23:21:11.541Z,17.13
2022-11-29T23:23:38.660Z,17.30
2022-11-29T23:26:07.116Z,17.20
2022-11-29T23:31:01.028Z,15.88
2022-11-29T23:33:27.723Z,17.15
2022-11-29T23:36:02.786Z,17.25
2022-11-29T23:38:30.114Z,16.25
2022-11-29T23:40:57.331Z,17.30
2022-11-29T23:43:37.283Z,17.30
2022-11-29T23:46:13.679Z,18.02
2022-11-29T23:48:40.536Z,17.23
2022-11-29T23:51:07.638Z,16.15
2022-11-29T23:53:34.125Z,15.82
2022-11-29T23:56:03.587Z,16.75
2022-11-29T23:58:31.050Z,15.90
